sensor_id;sensor_type;location;lat;lon;timestamp;P1;durP1;ratioP1;P2;durP2;ratioP2
71771;SDS011;59606;52.138;5.424;2023-04-12T00:00:06;7.18;;;1.30;;
71771;SDS011;59606;52.138;5.424;2023-04-12T00:02:36;4.75;;;1.08;;
71771;SDS011;59606;52.138;5.424;2023-04-12T00:05:04;3.97;;;1.23;;
71771;SDS011;59606;52.138;5.424;2023-04-12T00:07:31;5.53;;;1.20;;
71771;SDS011;59606;52.138;5.424;2023-04-12T00:09:57;5.18;;;0.93;;
71771;SDS011;59606;52.138;5.424;2023-04-12T00:12:24;5.72;;;1.45;;
71771;SDS011;59606;52.138;5.424;2023-04-12T00:14:50;7.60;;;1.67;;
71771;SDS011;59606;52.138;5.424;2023-04-12T00:17:17;4.43;;;0.87;;
71771;SDS011;59606;52.138;5.424;2023-04-12T00:19:45;7.72;;;1.30;;
71771;SDS011;59606;52.138;5.424;2023-04-12T00:22:13;5.18;;;1.02;;
71771;SDS011;59606;52.138;5.424;2023-04-12T00:24:40;4.82;;;0.93;;
71771;SDS011;59606;52.138;5.424;2023-04-12T00:27:07;5.35;;;1.02;;
71771;SDS011;59606;52.138;5.424;2023-04-12T00:29:33;2.60;;;0.90;;
71771;SDS011;59606;52.138;5.424;2023-04-12T00:32:00;1.25;;;0.45;;
71771;SDS011;59606;52.138;5.424;2023-04-12T00:34:28;1.83;;;0.70;;
71771;SDS011;59606;52.138;5.424;2023-04-12T00:36:55;6.57;;;1.00;;
71771;SDS011;59606;52.138;5.424;2023-04-12T00:39:21;4.80;;;0.70;;
71771;SDS011;59606;52.138;5.424;2023-04-12T00:41:48;2.83;;;0.80;;
71771;SDS011;59606;52.138;5.424;2023-04-12T00:44:15;4.72;;;0.63;;
71771;SDS011;59606;52.138;5.424;2023-04-12T00:46:46;2.42;;;0.63;;
71771;SDS011;59606;52.138;5.424;2023-04-12T00:49:13;4.03;;;0.57;;
71771;SDS011;59606;52.138;5.424;2023-04-12T00:51:40;1.85;;;0.63;;
71771;SDS011;59606;52.138;5.424;2023-04-12T00:54:07;2.87;;;0.60;;
71771;SDS011;59606;52.138;5.424;2023-04-12T00:56:34;2.97;;;0.45;;
71771;SDS011;59606;52.138;5.424;2023-04-12T00:59:02;1.00;;;0.60;;
71771;SDS011;59606;52.138;5.424;2023-04-12T01:01:28;3.10;;;0.75;;
71771;SDS011;59606;52.138;5.424;2023-04-12T01:03:57;1.50;;;0.85;;
71771;SDS011;59606;52.138;5.424;2023-04-12T01:06:36;5.17;;;0.73;;
71771;SDS011;59606;52.138;5.424;2023-04-12T01:12:07;3.30;;;0.80;;
71771;SDS011;59606;52.138;5.424;2023-04-12T01:18:00;4.43;;;1.10;;
71771;SDS011;59606;52.138;5.424;2023-04-12T01:20:32;2.10;;;0.67;;
71771;SDS011;59606;52.138;5.424;2023-04-12T01:23:14;9.60;;;1.35;;
71771;SDS011;59606;52.138;5.424;2023-04-12T01:25:56;3.67;;;0.70;;
71771;SDS011;59606;52.138;5.424;2023-04-12T01:28:37;8.70;;;1.13;;
71771;SDS011;59606;52.138;5.424;2023-04-12T01:31:06;1.90;;;1.05;;
71771;SDS011;59606;52.138;5.424;2023-04-12T01:33:36;3.73;;;0.90;;
71771;SDS011;59606;52.138;5.424;2023-04-12T01:36:05;3.30;;;1.17;;
71771;SDS011;59606;52.138;5.424;2023-04-12T01:38:38;3.25;;;0.80;;
71771;SDS011;59606;52.138;5.424;2023-04-12T01:41:07;5.28;;;0.73;;
71771;SDS011;59606;52.138;5.424;2023-04-12T01:43:41;4.07;;;0.80;;
71771;SDS011;59606;52.138;5.424;2023-04-12T01:46:11;1.83;;;0.70;;
71771;SDS011;59606;52.138;5.424;2023-04-12T01:48:44;4.38;;;1.60;;
71771;SDS011;59606;52.138;5.424;2023-04-12T01:54:10;2.72;;;0.70;;
71771;SDS011;59606;52.138;5.424;2023-04-12T01:56:40;4.07;;;0.85;;
71771;SDS011;59606;52.138;5.424;2023-04-12T01:59:11;2.57;;;1.00;;
71771;SDS011;59606;52.138;5.424;2023-04-12T02:01:40;4.85;;;0.88;;
71771;SDS011;59606;52.138;5.424;2023-04-12T02:04:07;2.47;;;0.77;;
71771;SDS011;59606;52.138;5.424;2023-04-12T02:06:34;2.00;;;0.77;;
71771;SDS011;59606;52.138;5.424;2023-04-12T02:09:03;3.58;;;0.88;;
71771;SDS011;59606;52.138;5.424;2023-04-12T02:11:31;5.03;;;0.80;;
71771;SDS011;59606;52.138;5.424;2023-04-12T02:13:58;4.43;;;1.08;;
71771;SDS011;59606;52.138;5.424;2023-04-12T02:16:24;5.07;;;0.88;;
71771;SDS011;59606;52.138;5.424;2023-04-12T02:18:54;8.10;;;1.10;;
71771;SDS011;59606;52.138;5.424;2023-04-12T02:21:22;3.35;;;0.90;;
71771;SDS011;59606;52.138;5.424;2023-04-12T02:23:49;3.50;;;1.13;;
71771;SDS011;59606;52.138;5.424;2023-04-12T02:26:15;3.13;;;1.35;;
71771;SDS011;59606;52.138;5.424;2023-04-12T02:28:43;5.85;;;0.95;;
71771;SDS011;59606;52.138;5.424;2023-04-12T02:31:09;3.58;;;0.65;;
71771;SDS011;59606;52.138;5.424;2023-04-12T02:33:37;2.10;;;0.68;;
71771;SDS011;59606;52.138;5.424;2023-04-12T02:36:04;3.50;;;0.97;;
71771;SDS011;59606;52.138;5.424;2023-04-12T02:38:35;3.83;;;1.10;;
71771;SDS011;59606;52.138;5.424;2023-04-12T02:41:01;4.85;;;1.67;;
71771;SDS011;59606;52.138;5.424;2023-04-12T02:43:28;5.38;;;1.10;;
71771;SDS011;59606;52.138;5.424;2023-04-12T02:45:55;2.42;;;0.82;;
71771;SDS011;59606;52.138;5.424;2023-04-12T02:48:21;4.33;;;0.93;;
71771;SDS011;59606;52.138;5.424;2023-04-12T02:50:47;7.68;;;0.98;;
71771;SDS011;59606;52.138;5.424;2023-04-12T02:53:14;5.93;;;1.25;;
71771;SDS011;59606;52.138;5.424;2023-04-12T02:55:41;3.85;;;0.80;;
71771;SDS011;59606;52.138;5.424;2023-04-12T02:58:09;5.50;;;0.95;;
71771;SDS011;59606;52.138;5.424;2023-04-12T03:00:36;2.90;;;0.80;;
71771;SDS011;59606;52.138;5.424;2023-04-12T03:03:02;2.63;;;0.88;;
71771;SDS011;59606;52.138;5.424;2023-04-12T03:05:29;3.28;;;1.30;;
71771;SDS011;59606;52.138;5.424;2023-04-12T03:07:56;5.57;;;1.15;;
71771;SDS011;59606;52.138;5.424;2023-04-12T03:10:22;5.88;;;0.90;;
71771;SDS011;59606;52.138;5.424;2023-04-12T03:12:49;2.23;;;0.80;;
71771;SDS011;59606;52.138;5.424;2023-04-12T03:15:15;5.13;;;1.02;;
71771;SDS011;59606;52.138;5.424;2023-04-12T03:17:43;2.92;;;0.90;;
71771;SDS011;59606;52.138;5.424;2023-04-12T03:20:10;5.38;;;1.35;;
71771;SDS011;59606;52.138;5.424;2023-04-12T03:22:37;4.32;;;1.02;;
71771;SDS011;59606;52.138;5.424;2023-04-12T03:25:03;3.27;;;1.30;;
71771;SDS011;59606;52.138;5.424;2023-04-12T03:27:31;2.38;;;1.10;;
71771;SDS011;59606;52.138;5.424;2023-04-12T03:29:58;4.25;;;1.20;;
71771;SDS011;59606;52.138;5.424;2023-04-12T03:32:24;2.78;;;0.80;;
71771;SDS011;59606;52.138;5.424;2023-04-12T03:34:51;3.22;;;1.10;;
71771;SDS011;59606;52.138;5.424;2023-04-12T03:37:17;6.23;;;1.33;;
71771;SDS011;59606;52.138;5.424;2023-04-12T03:39:44;3.90;;;0.90;;
71771;SDS011;59606;52.138;5.424;2023-04-12T03:42:13;4.82;;;0.90;;
71771;SDS011;59606;52.138;5.424;2023-04-12T03:44:57;2.20;;;0.93;;
71771;SDS011;59606;52.138;5.424;2023-04-12T03:47:23;5.72;;;1.13;;
71771;SDS011;59606;52.138;5.424;2023-04-12T03:49:50;3.17;;;0.77;;
71771;SDS011;59606;52.138;5.424;2023-04-12T03:52:36;3.10;;;1.30;;
71771;SDS011;59606;52.138;5.424;2023-04-12T03:55:03;6.43;;;1.02;;
71771;SDS011;59606;52.138;5.424;2023-04-12T03:57:31;4.57;;;0.82;;
71771;SDS011;59606;52.138;5.424;2023-04-12T03:59:57;4.22;;;0.90;;
71771;SDS011;59606;52.138;5.424;2023-04-12T04:02:25;1.83;;;0.80;;
71771;SDS011;59606;52.138;5.424;2023-04-12T04:04:52;4.88;;;1.00;;
71771;SDS011;59606;52.138;5.424;2023-04-12T04:07:18;2.22;;;0.80;;
71771;SDS011;59606;52.138;5.424;2023-04-12T04:09:46;6.10;;;1.00;;
71771;SDS011;59606;52.138;5.424;2023-04-12T04:12:13;3.08;;;0.68;;
71771;SDS011;59606;52.138;5.424;2023-04-12T04:14:39;3.27;;;0.93;;
71771;SDS011;59606;52.138;5.424;2023-04-12T04:17:06;2.97;;;1.10;;
71771;SDS011;59606;52.138;5.424;2023-04-12T04:19:32;4.07;;;1.05;;
71771;SDS011;59606;52.138;5.424;2023-04-12T04:21:59;3.42;;;1.15;;
71771;SDS011;59606;52.138;5.424;2023-04-12T04:24:27;2.63;;;0.85;;
71771;SDS011;59606;52.138;5.424;2023-04-12T04:26:54;2.73;;;1.10;;
71771;SDS011;59606;52.138;5.424;2023-04-12T04:29:20;2.63;;;1.08;;
71771;SDS011;59606;52.138;5.424;2023-04-12T04:31:47;3.45;;;1.10;;
71771;SDS011;59606;52.138;5.424;2023-04-12T04:34:14;3.80;;;0.90;;
71771;SDS011;59606;52.138;5.424;2023-04-12T04:36:41;1.98;;;0.80;;
71771;SDS011;59606;52.138;5.424;2023-04-12T04:39:08;4.30;;;0.87;;
71771;SDS011;59606;52.138;5.424;2023-04-12T04:41:35;5.55;;;0.95;;
71771;SDS011;59606;52.138;5.424;2023-04-12T04:44:05;3.53;;;1.00;;
71771;SDS011;59606;52.138;5.424;2023-04-12T04:46:37;1.50;;;0.90;;
71771;SDS011;59606;52.138;5.424;2023-04-12T04:49:04;4.07;;;0.73;;
71771;SDS011;59606;52.138;5.424;2023-04-12T04:51:31;1.63;;;0.70;;
71771;SDS011;59606;52.138;5.424;2023-04-12T04:53:59;3.75;;;1.00;;
71771;SDS011;59606;52.138;5.424;2023-04-12T04:56:26;2.55;;;1.00;;
71771;SDS011;59606;52.138;5.424;2023-04-12T04:58:52;5.40;;;1.23;;
71771;SDS011;59606;52.138;5.424;2023-04-12T05:01:22;3.15;;;0.90;;
71771;SDS011;59606;52.138;5.424;2023-04-12T05:03:54;2.13;;;1.03;;
71771;SDS011;59606;52.138;5.424;2023-04-12T05:06:21;5.10;;;0.90;;
71771;SDS011;59606;52.138;5.424;2023-04-12T05:08:48;3.22;;;1.10;;
71771;SDS011;59606;52.138;5.424;2023-04-12T05:11:14;2.35;;;1.20;;
71771;SDS011;59606;52.138;5.424;2023-04-12T05:13:41;4.32;;;1.30;;
71771;SDS011;59606;52.138;5.424;2023-04-12T05:16:08;4.70;;;1.10;;
71771;SDS011;59606;52.138;5.424;2023-04-12T05:18:34;5.53;;;1.02;;
71771;SDS011;59606;52.138;5.424;2023-04-12T05:21:02;2.53;;;1.20;;
71771;SDS011;59606;52.138;5.424;2023-04-12T05:23:29;4.82;;;0.95;;
71771;SDS011;59606;52.138;5.424;2023-04-12T05:25:58;6.50;;;1.23;;
71771;SDS011;59606;52.138;5.424;2023-04-12T05:28:24;4.63;;;1.33;;
71771;SDS011;59606;52.138;5.424;2023-04-12T05:30:51;3.95;;;0.95;;
71771;SDS011;59606;52.138;5.424;2023-04-12T05:33:17;3.38;;;1.38;;
71771;SDS011;59606;52.138;5.424;2023-04-12T05:35:44;2.00;;;1.02;;
71771;SDS011;59606;52.138;5.424;2023-04-12T05:38:10;3.30;;;1.55;;
71771;SDS011;59606;52.138;5.424;2023-04-12T05:40:37;2.37;;;0.90;;
71771;SDS011;59606;52.138;5.424;2023-04-12T05:43:03;2.05;;;0.90;;
71771;SDS011;59606;52.138;5.424;2023-04-12T05:45:30;2.28;;;0.88;;
71771;SDS011;59606;52.138;5.424;2023-04-12T05:47:57;4.28;;;1.08;;
71771;SDS011;59606;52.138;5.424;2023-04-12T05:50:23;4.07;;;1.83;;
71771;SDS011;59606;52.138;5.424;2023-04-12T05:52:50;2.30;;;1.17;;
71771;SDS011;59606;52.138;5.424;2023-04-12T05:55:16;2.28;;;1.05;;
71771;SDS011;59606;52.138;5.424;2023-04-12T05:57:43;3.40;;;1.50;;
71771;SDS011;59606;52.138;5.424;2023-04-12T06:00:12;2.70;;;1.00;;
71771;SDS011;59606;52.138;5.424;2023-04-12T06:02:43;4.65;;;1.20;;
71771;SDS011;59606;52.138;5.424;2023-04-12T06:05:11;2.27;;;1.00;;
71771;SDS011;59606;52.138;5.424;2023-04-12T06:07:38;3.38;;;1.23;;
71771;SDS011;59606;52.138;5.424;2023-04-12T06:10:13;4.05;;;1.60;;
71771;SDS011;59606;52.138;5.424;2023-04-12T06:12:42;3.75;;;1.23;;
71771;SDS011;59606;52.138;5.424;2023-04-12T06:15:08;3.20;;;1.00;;
71771;SDS011;59606;52.138;5.424;2023-04-12T06:17:36;2.93;;;1.20;;
71771;SDS011;59606;52.138;5.424;2023-04-12T06:20:03;2.45;;;1.00;;
71771;SDS011;59606;52.138;5.424;2023-04-12T06:22:34;2.35;;;1.00;;
71771;SDS011;59606;52.138;5.424;2023-04-12T06:25:02;2.13;;;1.02;;
71771;SDS011;59606;52.138;5.424;2023-04-12T06:27:29;3.35;;;0.80;;
71771;SDS011;59606;52.138;5.424;2023-04-12T06:29:56;1.83;;;0.83;;
71771;SDS011;59606;52.138;5.424;2023-04-12T06:32:24;2.28;;;1.10;;
71771;SDS011;59606;52.138;5.424;2023-04-12T06:34:51;2.03;;;1.13;;
71771;SDS011;59606;52.138;5.424;2023-04-12T06:37:17;2.78;;;1.08;;
71771;SDS011;59606;52.138;5.424;2023-04-12T06:39:44;2.83;;;0.80;;
71771;SDS011;59606;52.138;5.424;2023-04-12T06:42:10;3.60;;;1.10;;
71771;SDS011;59606;52.138;5.424;2023-04-12T06:44:40;3.67;;;1.10;;
71771;SDS011;59606;52.138;5.424;2023-04-12T06:47:06;5.18;;;1.17;;
71771;SDS011;59606;52.138;5.424;2023-04-12T06:49:33;2.78;;;1.17;;
71771;SDS011;59606;52.138;5.424;2023-04-12T06:52:00;3.10;;;1.52;;
71771;SDS011;59606;52.138;5.424;2023-04-12T06:54:26;5.07;;;1.37;;
71771;SDS011;59606;52.138;5.424;2023-04-12T06:56:53;4.40;;;1.77;;
71771;SDS011;59606;52.138;5.424;2023-04-12T06:59:19;3.25;;;1.02;;
71771;SDS011;59606;52.138;5.424;2023-04-12T07:01:46;3.00;;;1.40;;
71771;SDS011;59606;52.138;5.424;2023-04-12T07:04:13;3.95;;;1.45;;
71771;SDS011;59606;52.138;5.424;2023-04-12T07:06:39;4.37;;;1.80;;
71771;SDS011;59606;52.138;5.424;2023-04-12T07:09:06;4.20;;;1.23;;
71771;SDS011;59606;52.138;5.424;2023-04-12T07:11:33;3.92;;;1.48;;
71771;SDS011;59606;52.138;5.424;2023-04-12T07:14:00;4.80;;;1.58;;
71771;SDS011;59606;52.138;5.424;2023-04-12T07:16:28;6.47;;;1.92;;
71771;SDS011;59606;52.138;5.424;2023-04-12T07:18:57;5.37;;;1.60;;
71771;SDS011;59606;52.138;5.424;2023-04-12T07:21:24;2.75;;;1.48;;
71771;SDS011;59606;52.138;5.424;2023-04-12T07:23:52;4.47;;;1.55;;
71771;SDS011;59606;52.138;5.424;2023-04-12T07:26:19;4.07;;;1.63;;
71771;SDS011;59606;52.138;5.424;2023-04-12T07:28:46;3.30;;;1.42;;
71771;SDS011;59606;52.138;5.424;2023-04-12T07:31:13;3.77;;;1.70;;
71771;SDS011;59606;52.138;5.424;2023-04-12T07:33:39;7.45;;;2.30;;
71771;SDS011;59606;52.138;5.424;2023-04-12T07:36:08;7.95;;;2.58;;
71771;SDS011;59606;52.138;5.424;2023-04-12T07:38:35;8.35;;;3.40;;
71771;SDS011;59606;52.138;5.424;2023-04-12T07:41:02;6.68;;;2.92;;
71771;SDS011;59606;52.138;5.424;2023-04-12T07:43:28;5.73;;;2.07;;
71771;SDS011;59606;52.138;5.424;2023-04-12T07:45:55;20.05;;;6.35;;
71771;SDS011;59606;52.138;5.424;2023-04-12T07:48:22;10.95;;;4.63;;
71771;SDS011;59606;52.138;5.424;2023-04-12T07:50:49;8.88;;;3.08;;
71771;SDS011;59606;52.138;5.424;2023-04-12T07:53:17;18.25;;;2.88;;
71771;SDS011;59606;52.138;5.424;2023-04-12T07:55:48;7.80;;;2.10;;
71771;SDS011;59606;52.138;5.424;2023-04-12T07:58:15;6.85;;;2.47;;
71771;SDS011;59606;52.138;5.424;2023-04-12T08:00:42;6.75;;;2.22;;
71771;SDS011;59606;52.138;5.424;2023-04-12T08:03:10;5.95;;;2.50;;
71771;SDS011;59606;52.138;5.424;2023-04-12T08:05:38;7.60;;;2.30;;
71771;SDS011;59606;52.138;5.424;2023-04-12T08:08:05;6.80;;;2.57;;
71771;SDS011;59606;52.138;5.424;2023-04-12T08:10:35;6.25;;;2.20;;
71771;SDS011;59606;52.138;5.424;2023-04-12T08:13:03;4.63;;;2.28;;
71771;SDS011;59606;52.138;5.424;2023-04-12T08:15:30;7.35;;;2.05;;
71771;SDS011;59606;52.138;5.424;2023-04-12T08:17:57;7.88;;;2.22;;
71771;SDS011;59606;52.138;5.424;2023-04-12T08:20:23;10.53;;;2.43;;
71771;SDS011;59606;52.138;5.424;2023-04-12T08:22:50;9.82;;;2.58;;
71771;SDS011;59606;52.138;5.424;2023-04-12T08:25:17;8.32;;;2.08;;
71771;SDS011;59606;52.138;5.424;2023-04-12T08:27:44;8.48;;;2.55;;
71771;SDS011;59606;52.138;5.424;2023-04-12T08:30:11;7.07;;;2.47;;
71771;SDS011;59606;52.138;5.424;2023-04-12T08:32:38;15.07;;;2.30;;
71771;SDS011;59606;52.138;5.424;2023-04-12T08:35:04;7.93;;;1.90;;
71771;SDS011;59606;52.138;5.424;2023-04-12T08:37:31;7.85;;;1.90;;
71771;SDS011;59606;52.138;5.424;2023-04-12T08:40:01;8.23;;;2.03;;
71771;SDS011;59606;52.138;5.424;2023-04-12T08:42:30;13.23;;;1.90;;
71771;SDS011;59606;52.138;5.424;2023-04-12T08:45:02;12.03;;;2.17;;
71771;SDS011;59606;52.138;5.424;2023-04-12T08:47:30;11.00;;;2.17;;
71771;SDS011;59606;52.138;5.424;2023-04-12T08:49:59;15.15;;;2.25;;
71771;SDS011;59606;52.138;5.424;2023-04-12T08:52:29;9.43;;;3.05;;
71771;SDS011;59606;52.138;5.424;2023-04-12T08:55:00;10.63;;;2.20;;
71771;SDS011;59606;52.138;5.424;2023-04-12T08:57:29;10.53;;;2.00;;
71771;SDS011;59606;52.138;5.424;2023-04-12T09:00:01;11.82;;;2.50;;
71771;SDS011;59606;52.138;5.424;2023-04-12T09:02:29;14.57;;;2.72;;
71771;SDS011;59606;52.138;5.424;2023-04-12T09:04:56;10.30;;;2.65;;
71771;SDS011;59606;52.138;5.424;2023-04-12T09:07:23;17.27;;;2.55;;
71771;SDS011;59606;52.138;5.424;2023-04-12T09:09:56;16.73;;;2.80;;
71771;SDS011;59606;52.138;5.424;2023-04-12T09:12:23;7.88;;;1.90;;
71771;SDS011;59606;52.138;5.424;2023-04-12T09:17:31;17.92;;;2.17;;
71771;SDS011;59606;52.138;5.424;2023-04-12T09:19:59;8.68;;;1.70;;
71771;SDS011;59606;52.138;5.424;2023-04-12T09:22:35;8.67;;;1.87;;
71771;SDS011;59606;52.138;5.424;2023-04-12T09:25:02;10.85;;;2.25;;
71771;SDS011;59606;52.138;5.424;2023-04-12T09:27:44;18.48;;;2.17;;
71771;SDS011;59606;52.138;5.424;2023-04-12T09:30:14;8.20;;;1.42;;
71771;SDS011;59606;52.138;5.424;2023-04-12T09:32:42;9.95;;;1.83;;
71771;SDS011;59606;52.138;5.424;2023-04-12T09:35:09;9.10;;;1.50;;
71771;SDS011;59606;52.138;5.424;2023-04-12T09:37:36;15.05;;;2.30;;
71771;SDS011;59606;52.138;5.424;2023-04-12T09:40:03;9.48;;;1.83;;
71771;SDS011;59606;52.138;5.424;2023-04-12T09:42:32;16.88;;;2.15;;
71771;SDS011;59606;52.138;5.424;2023-04-12T09:45:00;13.65;;;1.98;;
71771;SDS011;59606;52.138;5.424;2023-04-12T09:47:51;14.13;;;2.23;;
71771;SDS011;59606;52.138;5.424;2023-04-12T09:50:23;7.90;;;1.75;;
71771;SDS011;59606;52.138;5.424;2023-04-12T09:52:52;8.85;;;1.58;;
71771;SDS011;59606;52.138;5.424;2023-04-12T09:55:23;7.75;;;2.10;;
71771;SDS011;59606;52.138;5.424;2023-04-12T09:57:51;13.98;;;2.15;;
71771;SDS011;59606;52.138;5.424;2023-04-12T10:00:20;16.37;;;2.23;;
71771;SDS011;59606;52.138;5.424;2023-04-12T10:02:49;13.82;;;2.03;;
71771;SDS011;59606;52.138;5.424;2023-04-12T10:05:22;10.00;;;1.90;;
71771;SDS011;59606;52.138;5.424;2023-04-12T10:07:53;7.60;;;1.63;;
71771;SDS011;59606;52.138;5.424;2023-04-12T10:10:21;11.85;;;1.90;;
71771;SDS011;59606;52.138;5.424;2023-04-12T10:12:48;7.93;;;1.93;;
71771;SDS011;59606;52.138;5.424;2023-04-12T10:15:15;12.40;;;2.53;;
71771;SDS011;59606;52.138;5.424;2023-04-12T10:17:44;7.28;;;1.75;;
71771;SDS011;59606;52.138;5.424;2023-04-12T10:20:11;10.05;;;1.77;;
71771;SDS011;59606;52.138;5.424;2023-04-12T10:22:40;10.07;;;1.80;;
71771;SDS011;59606;52.138;5.424;2023-04-12T10:25:11;10.83;;;1.67;;
71771;SDS011;59606;52.138;5.424;2023-04-12T10:27:41;8.70;;;2.13;;
71771;SDS011;59606;52.138;5.424;2023-04-12T10:30:27;11.93;;;1.80;;
71771;SDS011;59606;52.138;5.424;2023-04-12T10:35:27;13.75;;;1.95;;
71771;SDS011;59606;52.138;5.424;2023-04-12T10:40:31;13.10;;;2.10;;
71771;SDS011;59606;52.138;5.424;2023-04-12T10:45:48;9.52;;;1.77;;
71771;SDS011;59606;52.138;5.424;2023-04-12T10:56:42;13.98;;;1.80;;
71771;SDS011;59606;52.138;5.424;2023-04-12T10:59:12;16.52;;;2.35;;
71771;SDS011;59606;52.138;5.424;2023-04-12T11:01:40;14.30;;;2.75;;
71771;SDS011;59606;52.138;5.424;2023-04-12T11:09:18;19.77;;;1.95;;
71771;SDS011;59606;52.138;5.424;2023-04-12T11:11:57;14.13;;;2.28;;
71771;SDS011;59606;52.138;5.424;2023-04-12T11:14:36;14.38;;;2.03;;
71771;SDS011;59606;52.138;5.424;2023-04-12T11:22:03;9.82;;;1.65;;
71771;SDS011;59606;52.138;5.424;2023-04-12T11:24:31;11.25;;;1.92;;
71771;SDS011;59606;52.138;5.424;2023-04-12T11:26:58;13.60;;;2.20;;
71771;SDS011;59606;52.138;5.424;2023-04-12T11:29:26;11.77;;;1.93;;
71771;SDS011;59606;52.138;5.424;2023-04-12T11:31:52;11.95;;;1.80;;
71771;SDS011;59606;52.138;5.424;2023-04-12T11:34:21;15.63;;;2.30;;
71771;SDS011;59606;52.138;5.424;2023-04-12T11:36:51;11.95;;;2.00;;
71771;SDS011;59606;52.138;5.424;2023-04-12T11:39:19;15.77;;;2.10;;
71771;SDS011;59606;52.138;5.424;2023-04-12T11:41:47;12.97;;;2.00;;
71771;SDS011;59606;52.138;5.424;2023-04-12T11:44:14;10.07;;;1.95;;
71771;SDS011;59606;52.138;5.424;2023-04-12T11:46:44;15.57;;;1.98;;
71771;SDS011;59606;52.138;5.424;2023-04-12T11:49:14;11.20;;;2.42;;
71771;SDS011;59606;52.138;5.424;2023-04-12T11:51:42;11.50;;;2.13;;
71771;SDS011;59606;52.138;5.424;2023-04-12T11:54:12;19.33;;;3.87;;
71771;SDS011;59606;52.138;5.424;2023-04-12T11:56:39;8.63;;;2.30;;
71771;SDS011;59606;52.138;5.424;2023-04-12T11:59:06;11.40;;;1.75;;
71771;SDS011;59606;52.138;5.424;2023-04-12T12:01:34;12.13;;;3.22;;
71771;SDS011;59606;52.138;5.424;2023-04-12T12:04:00;11.23;;;1.92;;
71771;SDS011;59606;52.138;5.424;2023-04-12T12:06:28;10.57;;;2.50;;
71771;SDS011;59606;52.138;5.424;2023-04-12T12:08:56;12.32;;;2.35;;
71771;SDS011;59606;52.138;5.424;2023-04-12T12:11:23;6.50;;;1.50;;
71771;SDS011;59606;52.138;5.424;2023-04-12T12:13:52;9.88;;;1.73;;
71771;SDS011;59606;52.138;5.424;2023-04-12T12:16:27;9.57;;;2.08;;
71771;SDS011;59606;52.138;5.424;2023-04-12T12:18:55;6.03;;;1.33;;
71771;SDS011;59606;52.138;5.424;2023-04-12T12:21:23;9.60;;;1.77;;
71771;SDS011;59606;52.138;5.424;2023-04-12T12:23:51;7.65;;;1.08;;
71771;SDS011;59606;52.138;5.424;2023-04-12T12:26:21;7.03;;;1.55;;
71771;SDS011;59606;52.138;5.424;2023-04-12T12:28:50;11.32;;;2.10;;
71771;SDS011;59606;52.138;5.424;2023-04-12T12:31:22;12.40;;;1.50;;
71771;SDS011;59606;52.138;5.424;2023-04-12T12:33:57;13.98;;;1.50;;
71771;SDS011;59606;52.138;5.424;2023-04-12T12:36:28;7.95;;;1.25;;
71771;SDS011;59606;52.138;5.424;2023-04-12T12:41:37;5.85;;;0.95;;
71771;SDS011;59606;52.138;5.424;2023-04-12T12:44:04;5.30;;;1.20;;
71771;SDS011;59606;52.138;5.424;2023-04-12T12:46:33;5.65;;;0.98;;
71771;SDS011;59606;52.138;5.424;2023-04-12T12:49:02;6.25;;;1.42;;
71771;SDS011;59606;52.138;5.424;2023-04-12T12:51:29;6.78;;;1.75;;
71771;SDS011;59606;52.138;5.424;2023-04-12T12:53:56;4.80;;;1.15;;
71771;SDS011;59606;52.138;5.424;2023-04-12T12:56:23;7.83;;;1.90;;
71771;SDS011;59606;52.138;5.424;2023-04-12T12:58:49;3.63;;;1.20;;
71771;SDS011;59606;52.138;5.424;2023-04-12T13:01:16;3.33;;;0.47;;
71771;SDS011;59606;52.138;5.424;2023-04-12T13:03:42;5.53;;;1.20;;
71771;SDS011;59606;52.138;5.424;2023-04-12T13:06:09;7.72;;;1.88;;
71771;SDS011;59606;52.138;5.424;2023-04-12T13:08:36;8.17;;;2.30;;
71771;SDS011;59606;52.138;5.424;2023-04-12T13:11:03;11.93;;;2.30;;
71771;SDS011;59606;52.138;5.424;2023-04-12T13:13:29;7.07;;;1.15;;
71771;SDS011;59606;52.138;5.424;2023-04-12T13:15:56;5.65;;;1.05;;
71771;SDS011;59606;52.138;5.424;2023-04-12T13:18:22;6.70;;;1.95;;
71771;SDS011;59606;52.138;5.424;2023-04-12T13:20:49;6.70;;;1.60;;
71771;SDS011;59606;52.138;5.424;2023-04-12T13:23:16;7.40;;;1.70;;
71771;SDS011;59606;52.138;5.424;2023-04-12T13:25:43;12.05;;;2.33;;
71771;SDS011;59606;52.138;5.424;2023-04-12T13:28:09;3.78;;;0.52;;
71771;SDS011;59606;52.138;5.424;2023-04-12T13:30:37;5.78;;;0.98;;
71771;SDS011;59606;52.138;5.424;2023-04-12T13:33:03;4.07;;;0.90;;
71771;SDS011;59606;52.138;5.424;2023-04-12T13:35:30;4.30;;;0.80;;
71771;SDS011;59606;52.138;5.424;2023-04-12T13:37:57;2.28;;;0.70;;
71771;SDS011;59606;52.138;5.424;2023-04-12T13:40:23;4.53;;;1.15;;
71771;SDS011;59606;52.138;5.424;2023-04-12T13:42:50;3.17;;;0.40;;
71771;SDS011;59606;52.138;5.424;2023-04-12T13:45:16;1.63;;;0.20;;
71771;SDS011;59606;52.138;5.424;2023-04-12T13:47:43;4.28;;;0.50;;
71771;SDS011;59606;52.138;5.424;2023-04-12T13:50:09;6.78;;;0.40;;
71771;SDS011;59606;52.138;5.424;2023-04-12T13:52:36;2.63;;;0.25;;
71771;SDS011;59606;52.138;5.424;2023-04-12T13:55:02;2.55;;;0.30;;
71771;SDS011;59606;52.138;5.424;2023-04-12T13:57:33;1.77;;;0.50;;
71771;SDS011;59606;52.138;5.424;2023-04-12T14:00:00;4.18;;;0.40;;
71771;SDS011;59606;52.138;5.424;2023-04-12T14:02:27;2.20;;;0.43;;
71771;SDS011;59606;52.138;5.424;2023-04-12T14:04:56;3.63;;;0.40;;
71771;SDS011;59606;52.138;5.424;2023-04-12T14:07:23;2.70;;;0.30;;
71771;SDS011;59606;52.138;5.424;2023-04-12T14:09:50;2.67;;;0.37;;
71771;SDS011;59606;52.138;5.424;2023-04-12T14:12:16;2.88;;;0.35;;
71771;SDS011;59606;52.138;5.424;2023-04-12T14:14:43;1.48;;;0.30;;
71771;SDS011;59606;52.138;5.424;2023-04-12T14:17:09;4.85;;;0.90;;
71771;SDS011;59606;52.138;5.424;2023-04-12T14:19:36;1.15;;;0.20;;
71771;SDS011;59606;52.138;5.424;2023-04-12T14:22:03;2.67;;;0.43;;
71771;SDS011;59606;52.138;5.424;2023-04-12T14:24:29;1.20;;;0.30;;
71771;SDS011;59606;52.138;5.424;2023-04-12T14:26:57;1.67;;;0.40;;
71771;SDS011;59606;52.138;5.424;2023-04-12T14:29:24;4.03;;;0.80;;
71771;SDS011;59606;52.138;5.424;2023-04-12T14:31:51;15.23;;;8.65;;
71771;SDS011;59606;52.138;5.424;2023-04-12T14:34:18;6.77;;;3.30;;
71771;SDS011;59606;52.138;5.424;2023-04-12T14:36:44;5.93;;;0.50;;
71771;SDS011;59606;52.138;5.424;2023-04-12T14:39:11;3.03;;;0.38;;
71771;SDS011;59606;52.138;5.424;2023-04-12T14:41:40;2.58;;;0.73;;
71771;SDS011;59606;52.138;5.424;2023-04-12T14:44:06;6.70;;;0.52;;
71771;SDS011;59606;52.138;5.424;2023-04-12T14:46:33;5.40;;;0.80;;
71771;SDS011;59606;52.138;5.424;2023-04-12T14:48:59;6.72;;;1.00;;
71771;SDS011;59606;52.138;5.424;2023-04-12T14:51:27;3.25;;;1.20;;
71771;SDS011;59606;52.138;5.424;2023-04-12T14:53:54;3.00;;;0.73;;
71771;SDS011;59606;52.138;5.424;2023-04-12T14:56:22;4.40;;;1.25;;
71771;SDS011;59606;52.138;5.424;2023-04-12T14:58:55;3.37;;;0.70;;
71771;SDS011;59606;52.138;5.424;2023-04-12T15:01:22;1.70;;;0.40;;
71771;SDS011;59606;52.138;5.424;2023-04-12T15:03:50;3.10;;;0.70;;
71771;SDS011;59606;52.138;5.424;2023-04-12T15:06:20;2.88;;;0.50;;
71771;SDS011;59606;52.138;5.424;2023-04-12T15:08:51;5.65;;;0.60;;
71771;SDS011;59606;52.138;5.424;2023-04-12T15:11:19;2.30;;;0.70;;
71771;SDS011;59606;52.138;5.424;2023-04-12T15:13:52;5.32;;;0.80;;
71771;SDS011;59606;52.138;5.424;2023-04-12T15:16:19;1.33;;;0.52;;
71771;SDS011;59606;52.138;5.424;2023-04-12T15:18:45;2.97;;;0.60;;
71771;SDS011;59606;52.138;5.424;2023-04-12T15:21:12;2.17;;;0.30;;
71771;SDS011;59606;52.138;5.424;2023-04-12T15:23:39;6.33;;;0.80;;
71771;SDS011;59606;52.138;5.424;2023-04-12T15:26:07;1.80;;;0.50;;
71771;SDS011;59606;52.138;5.424;2023-04-12T15:28:37;2.88;;;0.50;;
71771;SDS011;59606;52.138;5.424;2023-04-12T15:31:03;5.10;;;0.50;;